Bainbridge, Indiana
Current Conditions -  °F | °C
As of 9:55 AM on Monday 22 Dec 2014 (Local Time) from K4I7 Reporting Station
Overcast Overcast  
Wind Chill: 29°   Ceiling: 900
Heat Index: 34°   Visibility: 7mi
Dew Point: 28°   Wind: 6mph
Humidity: 81%   Direction: 120°ESE
Pressure: 29.92"   Gusts: NA
Location:  39.76°N, 86.81°W
Report Text: K4I7 221455Z AUTO 12005KT 7SM BKN009 BKN030 OVC080 01/M02 A2992 RMK AO2
Loading
Personal Weather Stations






























Interactive Weather Map New forecast layout! Learn more

10-Day Weather Forecast

Advertisements
Track Severe Weather on mobile